KFXY/FXY METAR and TAF weather

Enter ICAO airport designator
Station Type Date Time Source
KFXY METAR 2019/10/15 18:15 UTC NOAA

KFXY 151815Z AUTO 31019G24KT 10SM SCT036 12/03 A2986 RMK AO2


Station Type Date Time Source
KFXY Decoded METAR 2019/10/15 18:15 UTC NOAA

Station name not available
Oct 15, 2019 - 02:15 PM EDT / 2019.10.15 1815 UTC
Wind: from the NW (310 degrees) at 22 MPH (19 KT) gusting to 28 MPH (24 KT):0
Visibility: 10 mile(s):0
Sky conditions: partly cloudy
Temperature: 53 F (12 C)
Dew Point: 37 F (3 C)
Relative Humidity: 54%
Pressure (altimeter): 29.86 in. Hg (1011 hPa)
ob: KFXY 151815Z AUTO 31019G24KT 10SM SCT036 12/03 A2986 RMK AO2
cycle: 18

Station Type Date Time Source
KFXY TAF UTC NOAA

Error!

Example: see airport list